createdAt,value
2023-02-02T00:01:33.042Z,1.20
2023-02-02T00:04:00.713Z,1.19
2023-02-02T00:06:30.728Z,1.20
2023-02-02T00:09:00.581Z,1.17
2023-02-02T00:11:28.631Z,1.16
2023-02-02T00:13:56.268Z,1.22
2023-02-02T00:16:26.590Z,1.17
2023-02-02T00:18:58.934Z,1.21
2023-02-02T00:21:26.799Z,1.20
2023-02-02T00:23:54.575Z,1.25
2023-02-02T00:26:22.706Z,1.24
2023-02-02T00:28:52.606Z,1.25
2023-02-02T00:31:20.365Z,1.22
2023-02-02T00:33:49.949Z,1.12
2023-02-02T00:36:19.306Z,1.15
2023-02-02T00:38:48.172Z,1.11
2023-02-02T00:41:16.326Z,1.01
2023-02-02T00:43:44.034Z,0.83
2023-02-02T00:46:18.569Z,0.89
2023-02-02T00:48:46.807Z,0.82
2023-02-02T00:51:14.300Z,0.88
2023-02-02T00:53:41.879Z,0.86
2023-02-02T00:56:09.596Z,0.91
2023-02-02T00:58:37.096Z,0.89
2023-02-02T01:01:05.008Z,0.88
2023-02-02T01:03:32.535Z,0.86
2023-02-02T01:06:00.152Z,0.88
2023-02-02T01:08:27.661Z,0.79
2023-02-02T01:10:59.900Z,0.81
2023-02-02T01:13:27.591Z,0.83
2023-02-02T01:15:57.766Z,0.78
2023-02-02T01:18:28.217Z,0.76
2023-02-02T01:21:04.016Z,0.85
2023-02-02T01:23:32.402Z,0.83
2023-02-02T01:26:02.052Z,0.89
2023-02-02T01:28:30.109Z,0.82
2023-02-02T01:30:58.915Z,0.82
2023-02-02T01:33:26.561Z,0.74
2023-02-02T01:35:56.386Z,0.73
2023-02-02T01:38:25.075Z,0.64
2023-02-02T01:40:55.431Z,0.54
2023-02-02T01:43:29.586Z,0.53
2023-02-02T01:45:58.823Z,0.53
2023-02-02T01:48:33.953Z,0.51
2023-02-02T01:51:05.728Z,0.48
2023-02-02T01:53:35.497Z,0.51
2023-02-02T01:56:08.161Z,0.41
2023-02-02T01:58:39.834Z,0.35
2023-02-02T02:01:07.891Z,0.33
2023-02-02T02:03:37.167Z,0.23
2023-02-02T02:06:13.049Z,0.25
2023-02-02T02:08:52.601Z,0.32
2023-02-02T02:11:21.853Z,0.37
2023-02-02T02:14:09.172Z,0.41
2023-02-02T02:17:09.039Z,0.51
2023-02-02T02:20:32.471Z,0.56
2023-02-02T02:23:57.864Z,0.50
2023-02-02T02:27:02.373Z,0.52
2023-02-02T02:29:58.165Z,0.49
2023-02-02T02:32:49.642Z,0.51
2023-02-02T02:35:31.261Z,0.48
2023-02-02T02:38:24.261Z,0.40
2023-02-02T02:40:56.981Z,0.36
2023-02-02T02:43:30.459Z,0.28
2023-02-02T02:45:59.572Z,0.28
2023-02-02T02:48:29.691Z,0.26
2023-02-02T02:51:41.425Z,0.32
2023-02-02T02:54:22.058Z,0.22
2023-02-02T02:57:10.891Z,0.17
2023-02-02T03:00:02.982Z,0.20
2023-02-02T03:02:39.870Z,0.05
2023-02-02T03:05:34.515Z,0.12
2023-02-02T03:08:10.569Z,0.20
2023-02-02T03:10:41.868Z,0.05
2023-02-02T03:13:11.865Z,0.08
2023-02-02T03:15:44.426Z,0.05
2023-02-02T03:18:17.175Z,0.10
2023-02-02T03:20:46.153Z,0.06
2023-02-02T03:23:14.291Z,0.03
2023-02-02T03:25:42.089Z,-0.01
2023-02-02T03:28:09.994Z,-0.03
2023-02-02T03:30:39.948Z,0.02
2023-02-02T03:33:07.963Z,0.02
2023-02-02T03:35:35.696Z,0.02
2023-02-02T03:38:04.032Z,0.03
2023-02-02T03:40:31.768Z,-0.02
2023-02-02T03:42:59.324Z,0.03
2023-02-02T03:45:32.209Z,0.05
2023-02-02T03:47:59.875Z,0.00
2023-02-02T03:50:27.364Z,0.06
2023-02-02T03:52:55.559Z,0.04
2023-02-02T03:55:23.370Z,0.06
2023-02-02T03:57:51.284Z,0.09
2023-02-02T04:00:19.263Z,0.03
2023-02-02T04:02:46.968Z,0.05
2023-02-02T04:05:14.556Z,0.03
2023-02-02T04:07:42.062Z,0.01
2023-02-02T04:10:10.394Z,-0.01
2023-02-02T04:12:38.123Z,-0.13
2023-02-02T04:15:06.537Z,-0.14
2023-02-02T04:17:35.501Z,-0.07
2023-02-02T04:20:05.602Z,-0.05
2023-02-02T04:22:33.873Z,0.03
2023-02-02T04:25:01.454Z,-0.04
2023-02-02T04:27:32.763Z,-0.02
2023-02-02T04:30:00.576Z,0.01
2023-02-02T04:32:28.194Z,-0.05
2023-02-02T04:34:55.750Z,0.11
2023-02-02T04:37:23.343Z,0.09
2023-02-02T04:39:50.928Z,0.09
2023-02-02T04:42:18.738Z,0.10
2023-02-02T04:44:46.399Z,0.13
2023-02-02T04:47:13.950Z,0.14
2023-02-02T04:49:41.762Z,0.13
2023-02-02T04:52:11.636Z,0.07
2023-02-02T04:54:39.186Z,0.08
2023-02-02T04:57:06.653Z,0.07
2023-02-02T04:59:34.230Z,0.06
2023-02-02T05:02:02.793Z,0.03
2023-02-02T05:04:30.688Z,0.11
2023-02-02T05:06:58.438Z,0.12
2023-02-02T05:09:26.370Z,0.16
2023-02-02T05:11:53.981Z,0.14
2023-02-02T05:14:21.647Z,0.06
2023-02-02T05:16:50.113Z,0.10
2023-02-02T05:19:18.125Z,0.07
2023-02-02T05:21:46.127Z,0.04
2023-02-02T05:24:16.163Z,0.04
2023-02-02T05:26:43.846Z,-0.09
2023-02-02T05:29:11.362Z,-0.08
2023-02-02T05:31:39.041Z,0.03
2023-02-02T05:34:07.062Z,0.08
2023-02-02T05:36:34.535Z,0.16
2023-02-02T05:39:05.997Z,0.08
2023-02-02T05:41:33.634Z,0.17
2023-02-02T05:44:01.749Z,0.13
2023-02-02T05:46:30.005Z,0.12
2023-02-02T05:49:05.058Z,0.18
2023-02-02T05:51:39.192Z,0.21
2023-02-02T05:54:07.119Z,0.22
2023-02-02T05:56:34.713Z,0.28
2023-02-02T05:59:05.164Z,0.28
2023-02-02T06:01:33.201Z,0.35
2023-02-02T06:04:01.064Z,0.35
2023-02-02T06:06:28.664Z,0.35
2023-02-02T06:08:56.172Z,0.33
2023-02-02T06:11:24.724Z,0.39
2023-02-02T06:13:52.354Z,0.31
2023-02-02T06:16:19.868Z,0.34
2023-02-02T06:18:48.724Z,0.44
2023-02-02T06:21:16.355Z,0.45
2023-02-02T06:23:46.014Z,0.50
2023-02-02T06:26:15.515Z,0.52
2023-02-02T06:28:44.372Z,0.52
2023-02-02T06:31:12.451Z,0.53
2023-02-02T06:33:40.425Z,0.55
2023-02-02T06:36:08.230Z,0.54
2023-02-02T06:38:36.332Z,0.49
2023-02-02T06:41:04.577Z,0.49
2023-02-02T06:43:34.249Z,0.56
2023-02-02T06:46:01.902Z,0.66
2023-02-02T06:48:30.367Z,0.66
2023-02-02T06:50:59.627Z,0.69
2023-02-02T06:53:28.255Z,0.60
2023-02-02T06:55:58.466Z,0.59
2023-02-02T06:58:29.476Z,0.51
2023-02-02T07:01:06.569Z,0.48
2023-02-02T07:03:35.061Z,0.55
2023-02-02T07:06:25.977Z,0.64
2023-02-02T07:09:01.603Z,0.60
2023-02-02T07:11:34.608Z,0.50
2023-02-02T07:14:04.925Z,0.61
2023-02-02T07:16:33.009Z,0.61
2023-02-02T07:19:00.613Z,0.58
2023-02-02T07:21:30.391Z,0.63
2023-02-02T07:23:58.556Z,0.72
2023-02-02T07:26:27.798Z,0.73
2023-02-02T07:28:55.400Z,0.71
2023-02-02T07:31:26.268Z,0.78
2023-02-02T07:33:54.447Z,0.80
2023-02-02T07:36:24.186Z,0.90
2023-02-02T07:38:57.806Z,0.94
2023-02-02T07:41:25.879Z,1.10
2023-02-02T07:43:53.780Z,1.01
2023-02-02T07:46:21.727Z,1.00
2023-02-02T07:48:50.045Z,1.00
2023-02-02T07:51:19.480Z,0.94
2023-02-02T07:53:50.895Z,0.94
2023-02-02T07:56:21.495Z,0.82
2023-02-02T07:58:51.498Z,0.78
2023-02-02T08:01:20.673Z,0.74
2023-02-02T08:03:49.533Z,0.82
2023-02-02T08:06:34.397Z,0.88
2023-02-02T08:09:03.306Z,0.92
2023-02-02T08:11:30.976Z,1.06
2023-02-02T08:14:01.403Z,1.14
2023-02-02T08:16:31.409Z,1.01
2023-02-02T08:18:59.757Z,1.02
2023-02-02T08:21:28.280Z,1.00
2023-02-02T08:23:57.039Z,1.03
2023-02-02T08:26:28.086Z,0.99
2023-02-02T08:28:59.175Z,1.05
2023-02-02T08:31:38.853Z,1.14
2023-02-02T08:34:06.499Z,1.08
2023-02-02T08:36:37.182Z,1.10
2023-02-02T08:39:11.446Z,1.15
2023-02-02T08:41:39.539Z,1.15
2023-02-02T08:44:14.015Z,1.23
2023-02-02T08:46:42.615Z,1.23
2023-02-02T08:49:13.512Z,1.33
2023-02-02T08:51:43.679Z,1.41
2023-02-02T08:54:11.336Z,1.49
2023-02-02T08:56:39.077Z,1.59
2023-02-02T08:59:06.716Z,1.63
2023-02-02T09:01:35.816Z,1.60
2023-02-02T09:04:08.919Z,1.95
2023-02-02T09:06:41.043Z,3.02
2023-02-02T09:09:11.637Z,4.17
2023-02-02T09:11:39.902Z,4.60
2023-02-02T09:14:08.105Z,4.42
2023-02-02T09:16:36.507Z,4.29
2023-02-02T09:19:05.359Z,4.09
2023-02-02T09:21:37.397Z,4.13
2023-02-02T09:24:14.041Z,3.88
2023-02-02T09:26:43.616Z,3.79
2023-02-02T09:29:14.131Z,4.02
2023-02-02T09:31:42.217Z,4.03
2023-02-02T09:34:14.928Z,4.02
2023-02-02T09:36:43.877Z,4.05
2023-02-02T09:39:16.773Z,4.08
2023-02-02T09:42:10.841Z,4.06
2023-02-02T09:44:59.989Z,3.82
2023-02-02T09:47:30.748Z,3.61
2023-02-02T09:50:11.700Z,3.32
2023-02-02T09:53:10.981Z,3.04
2023-02-02T09:55:41.434Z,2.79
2023-02-02T09:58:30.323Z,2.62
2023-02-02T10:01:10.127Z,2.54
2023-02-02T10:03:58.720Z,2.26
2023-02-02T10:06:41.304Z,2.16
2023-02-02T10:09:36.409Z,2.17
2023-02-02T10:12:27.753Z,2.28
2023-02-02T10:15:17.702Z,2.19
2023-02-02T10:18:06.861Z,2.32
2023-02-02T10:20:51.493Z,2.33
2023-02-02T10:23:27.451Z,2.30
2023-02-02T10:26:03.749Z,2.33
2023-02-02T10:28:51.868Z,2.38
2023-02-02T10:31:45.843Z,2.37
2023-02-02T10:34:41.142Z,2.53
2023-02-02T10:37:46.465Z,2.61
2023-02-02T10:40:42.709Z,2.57
2023-02-02T10:43:49.411Z,2.41
2023-02-02T10:46:38.617Z,2.52
2023-02-02T10:49:33.732Z,2.62
2023-02-02T10:52:11.257Z,2.51
2023-02-02T10:55:03.941Z,2.55
2023-02-02T10:58:05.631Z,2.51
2023-02-02T11:00:46.425Z,2.68
2023-02-02T11:03:16.847Z,2.78
2023-02-02T11:06:02.763Z,3.16
2023-02-02T11:08:38.235Z,4.18
2023-02-02T11:11:19.174Z,5.36
2023-02-02T11:13:59.317Z,6.11
2023-02-02T11:16:41.985Z,5.86
2023-02-02T11:19:22.612Z,5.33
2023-02-02T11:21:54.472Z,4.66
2023-02-02T11:24:39.806Z,4.15
2023-02-02T11:27:14.976Z,3.70
2023-02-02T11:29:46.555Z,3.46
2023-02-02T11:32:25.218Z,3.27
2023-02-02T11:35:13.744Z,3.07
2023-02-02T11:38:14.613Z,2.72
2023-02-02T11:41:07.209Z,2.49
2023-02-02T11:43:44.424Z,2.38
2023-02-02T11:46:20.349Z,2.37
2023-02-02T11:49:14.972Z,2.44
2023-02-02T11:51:44.682Z,2.37
2023-02-02T11:54:27.197Z,2.22
2023-02-02T11:56:58.100Z,2.07
2023-02-02T11:59:40.558Z,2.00
2023-02-02T12:02:20.308Z,2.12
2023-02-02T12:04:50.076Z,1.81
2023-02-02T12:07:32.949Z,1.73
2023-02-02T12:10:07.307Z,1.66
2023-02-02T12:12:59.011Z,1.83
2023-02-02T12:16:00.664Z,1.99
2023-02-02T12:18:39.933Z,1.98
2023-02-02T12:21:19.002Z,2.08
2023-02-02T12:24:07.029Z,2.14
2023-02-02T12:26:37.949Z,2.12
2023-02-02T12:29:18.844Z,2.17
2023-02-02T12:32:14.889Z,2.10
2023-02-02T12:34:51.354Z,2.02
2023-02-02T12:37:21.892Z,2.03
2023-02-02T12:40:04.668Z,1.96
2023-02-02T12:43:00.669Z,1.90
2023-02-02T12:45:43.091Z,1.80
2023-02-02T12:48:24.113Z,1.59
2023-02-02T12:51:36.653Z,1.59
2023-02-02T12:54:34.446Z,1.52
2023-02-02T12:57:06.416Z,1.45
2023-02-02T12:59:49.021Z,1.37
2023-02-02T13:02:40.743Z,1.39
2023-02-02T13:05:33.105Z,1.37
2023-02-02T13:08:30.416Z,1.63
2023-02-02T13:11:29.480Z,1.49
2023-02-02T13:14:08.591Z,1.46
2023-02-02T13:16:40.152Z,1.50
2023-02-02T13:19:49.377Z,1.62
2023-02-02T13:22:28.770Z,1.54
2023-02-02T13:25:01.381Z,1.52
2023-02-02T13:27:31.906Z,1.45
2023-02-02T13:30:14.059Z,1.39
2023-02-02T13:32:45.364Z,1.32
2023-02-02T13:35:31.481Z,1.20
2023-02-02T13:38:15.208Z,1.17
2023-02-02T13:40:44.351Z,1.22
2023-02-02T13:43:17.947Z,1.09
2023-02-02T13:46:13.985Z,1.07
2023-02-02T13:48:58.205Z,1.09
2023-02-02T13:52:00.607Z,1.12
2023-02-02T13:55:05.858Z,1.21
2023-02-02T13:57:45.195Z,1.21
2023-02-02T14:00:23.586Z,1.18
2023-02-02T14:03:00.482Z,1.17
2023-02-02T14:05:32.845Z,1.16
2023-02-02T14:08:07.720Z,1.14
2023-02-02T14:10:56.412Z,1.16
2023-02-02T14:14:07.245Z,1.15
2023-02-02T14:16:37.975Z,1.09
2023-02-02T14:19:09.252Z,1.14
2023-02-02T14:21:36.785Z,1.14
2023-02-02T14:24:26.283Z,1.19
2023-02-02T14:26:55.292Z,1.02
2023-02-02T14:29:31.648Z,1.09
2023-02-02T14:32:23.894Z,1.08
2023-02-02T14:34:53.915Z,0.93
2023-02-02T14:37:24.458Z,0.81
2023-02-02T14:39:58.344Z,0.94
2023-02-02T14:42:56.764Z,0.94
2023-02-02T14:45:33.516Z,0.96
2023-02-02T14:48:06.260Z,0.96
2023-02-02T14:50:39.947Z,1.06
2023-02-02T14:53:19.737Z,1.06
2023-02-02T14:56:10.768Z,1.01
2023-02-02T14:59:07.803Z,1.06
2023-02-02T15:01:37.588Z,0.99
2023-02-02T15:04:25.352Z,0.96
2023-02-02T15:06:53.557Z,0.90
2023-02-02T15:09:22.455Z,0.88
2023-02-02T15:12:00.873Z,0.93
2023-02-02T15:14:35.642Z,0.97
2023-02-02T15:17:16.549Z,1.00
2023-02-02T15:19:49.786Z,1.05
2023-02-02T15:22:32.227Z,1.07
2023-02-02T15:25:04.958Z,1.06
2023-02-02T15:27:32.786Z,1.09
2023-02-02T15:30:07.426Z,1.16
2023-02-02T15:32:36.686Z,1.04
2023-02-02T15:35:17.463Z,1.08
2023-02-02T15:37:50.207Z,1.10
2023-02-02T15:40:24.191Z,1.01
2023-02-02T15:43:05.799Z,1.04
2023-02-02T15:45:51.359Z,1.06
2023-02-02T15:48:26.989Z,1.01
2023-02-02T15:50:55.537Z,0.95
2023-02-02T15:53:32.169Z,0.97
2023-02-02T15:56:00.357Z,0.86
2023-02-02T15:58:33.280Z,0.86
2023-02-02T16:01:14.500Z,0.86
2023-02-02T16:04:19.013Z,0.90
2023-02-02T16:06:48.369Z,0.87
2023-02-02T16:09:35.964Z,0.93
2023-02-02T16:12:06.223Z,0.86
2023-02-02T16:14:40.326Z,0.86
2023-02-02T16:17:21.756Z,0.84
2023-02-02T16:20:01.011Z,0.83
2023-02-02T16:22:31.883Z,0.79
2023-02-02T16:25:03.210Z,0.93
2023-02-02T16:27:32.790Z,0.87
2023-02-02T16:30:06.101Z,0.99
2023-02-02T16:32:37.238Z,1.05
2023-02-02T16:35:32.364Z,1.18
2023-02-02T16:38:33.759Z,1.17
2023-02-02T16:41:35.288Z,1.02
2023-02-02T16:44:37.950Z,1.01
2023-02-02T16:47:31.137Z,0.98
2023-02-02T16:50:08.901Z,0.97
2023-02-02T16:52:48.478Z,1.02
2023-02-02T16:55:20.074Z,0.97
2023-02-02T16:57:49.507Z,0.89
2023-02-02T17:00:26.069Z,0.89
2023-02-02T17:03:17.008Z,0.87
2023-02-02T17:05:51.397Z,0.90
2023-02-02T17:08:39.780Z,0.98
2023-02-02T17:11:25.963Z,0.97
2023-02-02T17:13:56.495Z,0.80
2023-02-02T17:16:25.285Z,0.85
2023-02-02T17:18:52.874Z,0.81
2023-02-02T17:21:22.955Z,0.75
2023-02-02T17:23:56.880Z,0.86
2023-02-02T17:26:24.649Z,0.94
2023-02-02T17:28:56.226Z,0.97
2023-02-02T17:31:24.104Z,0.97
2023-02-02T17:33:51.607Z,0.93
2023-02-02T17:36:19.142Z,0.93
2023-02-02T17:38:46.817Z,0.92
2023-02-02T17:41:14.559Z,0.90
2023-02-02T17:43:43.018Z,0.96
2023-02-02T17:46:13.274Z,0.86
2023-02-02T17:48:41.001Z,0.81
2023-02-02T17:51:15.149Z,0.76
2023-02-02T17:53:43.514Z,0.78
2023-02-02T17:56:11.036Z,0.77
2023-02-02T17:58:38.694Z,0.70
2023-02-02T18:01:07.108Z,0.70
2023-02-02T18:03:37.511Z,0.73
2023-02-02T18:06:23.592Z,0.74
2023-02-02T18:09:09.655Z,0.72
2023-02-02T18:11:37.949Z,0.59
2023-02-02T18:14:05.475Z,0.68
2023-02-02T18:16:33.201Z,0.68
2023-02-02T18:19:02.810Z,0.65
2023-02-02T18:21:31.925Z,0.63
2023-02-02T18:23:59.556Z,0.68
2023-02-02T18:26:27.362Z,0.71
2023-02-02T18:28:54.982Z,0.70
2023-02-02T18:31:24.319Z,0.65
2023-02-02T18:33:51.896Z,0.72
2023-02-02T18:36:21.904Z,0.67
2023-02-02T18:38:51.219Z,0.66
2023-02-02T18:41:21.643Z,0.57
2023-02-02T18:43:49.879Z,0.67
2023-02-02T18:46:17.542Z,0.70
2023-02-02T18:48:45.156Z,0.66
2023-02-02T18:51:18.259Z,0.70
2023-02-02T18:53:47.542Z,0.65
2023-02-02T18:56:15.897Z,0.55
2023-02-02T18:58:43.936Z,0.59
2023-02-02T19:01:17.068Z,0.57
2023-02-02T19:03:49.598Z,0.45
2023-02-02T19:06:36.897Z,0.43
2023-02-02T19:09:06.281Z,0.47
2023-02-02T19:11:40.201Z,0.59
2023-02-02T19:14:33.364Z,0.58
2023-02-02T19:17:28.117Z,0.57
2023-02-02T19:20:03.000Z,0.68
2023-02-02T19:22:32.606Z,0.59
2023-02-02T19:25:13.462Z,0.66
2023-02-02T19:27:55.887Z,0.64
2023-02-02T19:31:16.936Z,0.58
2023-02-02T19:46:09.125Z,0.71
2023-02-02T19:54:02.043Z,0.68
2023-02-02T19:56:39.755Z,0.51
2023-02-02T19:59:16.289Z,0.59
2023-02-02T20:01:47.905Z,0.44
2023-02-02T20:04:15.932Z,0.47
2023-02-02T20:06:58.003Z,0.42
2023-02-02T20:09:34.118Z,0.40
2023-02-02T20:12:16.614Z,0.33
2023-02-02T20:14:44.290Z,0.36
2023-02-02T20:17:16.622Z,0.39
2023-02-02T20:19:45.678Z,0.36
2023-02-02T20:22:28.687Z,0.41
2023-02-02T20:24:57.065Z,0.26
2023-02-02T20:27:27.576Z,0.20
2023-02-02T20:30:01.702Z,0.25
2023-02-02T20:32:41.330Z,0.35
2023-02-02T20:35:37.327Z,0.44
2023-02-02T20:38:16.463Z,0.44
2023-02-02T20:40:44.155Z,0.39
2023-02-02T20:47:45.229Z,0.46
2023-02-02T20:50:35.516Z,0.45
2023-02-02T20:57:00.271Z,0.36
2023-02-02T21:00:17.061Z,0.39
2023-02-02T21:07:37.400Z,0.45
2023-02-02T21:19:38.733Z,0.51
2023-02-02T21:32:11.227Z,0.33
2023-02-02T21:34:38.795Z,0.28
2023-02-02T21:37:32.366Z,0.37
2023-02-02T21:40:00.186Z,0.26
2023-02-02T21:43:14.636Z,0.35
2023-02-02T21:53:47.289Z,0.49
2023-02-02T22:00:59.567Z,0.44
2023-02-02T22:25:33.734Z,0.49
2023-02-02T22:45:35.888Z,0.63
2023-02-02T22:57:34.124Z,0.66
2023-02-02T23:10:09.593Z,0.58
2023-02-02T23:12:37.351Z,0.54
2023-02-02T23:15:05.228Z,0.64
2023-02-02T23:17:32.929Z,0.57
2023-02-02T23:20:00.428Z,0.45
2023-02-02T23:22:27.840Z,0.51
2023-02-02T23:24:55.426Z,0.54
2023-02-02T23:27:25.777Z,0.59
2023-02-02T23:29:53.475Z,0.60
2023-02-02T23:32:21.129Z,0.49
2023-02-02T23:34:48.782Z,0.51
2023-02-02T23:37:16.235Z,0.45
2023-02-02T23:39:43.767Z,0.55
2023-02-02T23:42:11.387Z,0.53
2023-02-02T23:44:38.906Z,0.49
2023-02-02T23:47:06.883Z,0.48
2023-02-02T23:49:34.974Z,0.42
2023-02-02T23:52:02.754Z,0.41
2023-02-02T23:54:31.528Z,0.43
2023-02-02T23:56:59.326Z,0.43
2023-02-02T23:59:26.861Z,0.46
